sensor_id;sensor_type;location;lat;lon;timestamp;P1;durP1;ratioP1;P2;durP2;ratioP2
2404;SDS011;1213;43.206;27.922;2022-12-18T00:01:14;2.20;;;2.00;;
2404;SDS011;1213;43.206;27.922;2022-12-18T00:03:40;1.47;;;1.37;;
2404;SDS011;1213;43.206;27.922;2022-12-18T00:06:05;2.33;;;2.20;;
2404;SDS011;1213;43.206;27.922;2022-12-18T00:08:31;2.20;;;1.60;;
2404;SDS011;1213;43.206;27.922;2022-12-18T00:11:02;2.30;;;1.63;;
2404;SDS011;1213;43.206;27.922;2022-12-18T00:13:29;1.30;;;1.20;;
2404;SDS011;1213;43.206;27.922;2022-12-18T00:15:54;1.77;;;1.10;;
2404;SDS011;1213;43.206;27.922;2022-12-18T00:18:20;1.50;;;1.30;;
2404;SDS011;1213;43.206;27.922;2022-12-18T00:20:45;2.00;;;1.10;;
2404;SDS011;1213;43.206;27.922;2022-12-18T00:23:10;1.63;;;1.53;;
2404;SDS011;1213;43.206;27.922;2022-12-18T00:25:36;1.10;;;1.00;;
2404;SDS011;1213;43.206;27.922;2022-12-18T00:28:02;2.03;;;1.43;;
2404;SDS011;1213;43.206;27.922;2022-12-18T00:30:28;1.53;;;1.00;;
2404;SDS011;1213;43.206;27.922;2022-12-18T00:32:54;1.20;;;1.10;;
2404;SDS011;1213;43.206;27.922;2022-12-18T00:35:20;1.67;;;1.23;;
2404;SDS011;1213;43.206;27.922;2022-12-18T00:37:46;1.83;;;1.40;;
2404;SDS011;1213;43.206;27.922;2022-12-18T00:40:12;1.50;;;1.40;;
2404;SDS011;1213;43.206;27.922;2022-12-18T00:42:38;1.43;;;0.90;;
2404;SDS011;1213;43.206;27.922;2022-12-18T00:45:26;1.30;;;1.20;;
2404;SDS011;1213;43.206;27.922;2022-12-18T00:47:52;2.23;;;1.63;;
2404;SDS011;1213;43.206;27.922;2022-12-18T00:50:19;2.37;;;1.80;;
2404;SDS011;1213;43.206;27.922;2022-12-18T00:52:45;5.73;;;1.67;;
2404;SDS011;1213;43.206;27.922;2022-12-18T00:55:10;1.33;;;1.23;;
2404;SDS011;1213;43.206;27.922;2022-12-18T00:57:36;1.73;;;1.20;;
2404;SDS011;1213;43.206;27.922;2022-12-18T01:00:02;2.07;;;1.67;;
2404;SDS011;1213;43.206;27.922;2022-12-18T01:02:28;1.30;;;1.20;;
2404;SDS011;1213;43.206;27.922;2022-12-18T01:04:55;1.73;;;1.27;;
2404;SDS011;1213;43.206;27.922;2022-12-18T01:07:21;1.67;;;1.23;;
2404;SDS011;1213;43.206;27.922;2022-12-18T01:09:47;2.13;;;2.03;;
2404;SDS011;1213;43.206;27.922;2022-12-18T01:12:13;3.70;;;1.97;;
2404;SDS011;1213;43.206;27.922;2022-12-18T01:14:38;3.10;;;2.23;;
2404;SDS011;1213;43.206;27.922;2022-12-18T01:17:04;1.70;;;1.33;;
2404;SDS011;1213;43.206;27.922;2022-12-18T01:19:29;4.47;;;2.30;;
2404;SDS011;1213;43.206;27.922;2022-12-18T01:21:55;1.57;;;1.20;;
2404;SDS011;1213;43.206;27.922;2022-12-18T01:24:21;1.93;;;1.63;;
2404;SDS011;1213;43.206;27.922;2022-12-18T01:26:48;1.60;;;1.50;;
2404;SDS011;1213;43.206;27.922;2022-12-18T01:29:13;2.00;;;1.70;;
2404;SDS011;1213;43.206;27.922;2022-12-18T01:31:39;1.47;;;1.37;;
2404;SDS011;1213;43.206;27.922;2022-12-18T01:34:05;2.50;;;1.70;;
2404;SDS011;1213;43.206;27.922;2022-12-18T01:36:32;1.70;;;1.10;;
2404;SDS011;1213;43.206;27.922;2022-12-18T01:39:00;2.07;;;1.50;;
2404;SDS011;1213;43.206;27.922;2022-12-18T01:41:27;9.37;;;1.80;;
2404;SDS011;1213;43.206;27.922;2022-12-18T01:47:59;1.90;;;1.80;;
2404;SDS011;1213;43.206;27.922;2022-12-18T01:50:38;2.03;;;1.90;;
2404;SDS011;1213;43.206;27.922;2022-12-18T01:53:09;4.73;;;1.90;;
2404;SDS011;1213;43.206;27.922;2022-12-18T01:55:48;2.00;;;1.90;;
2404;SDS011;1213;43.206;27.922;2022-12-18T01:58:16;3.17;;;1.90;;
2404;SDS011;1213;43.206;27.922;2022-12-18T02:00:42;4.30;;;1.40;;
2404;SDS011;1213;43.206;27.922;2022-12-18T02:03:08;2.10;;;1.33;;
2404;SDS011;1213;43.206;27.922;2022-12-18T02:08:17;1.60;;;1.50;;
2404;SDS011;1213;43.206;27.922;2022-12-18T02:19:06;8.23;;;2.13;;
2404;SDS011;1213;43.206;27.922;2022-12-18T02:21:48;1.70;;;1.60;;
2404;SDS011;1213;43.206;27.922;2022-12-18T02:24:45;3.07;;;1.60;;
2404;SDS011;1213;43.206;27.922;2022-12-18T02:27:26;3.50;;;1.73;;
2404;SDS011;1213;43.206;27.922;2022-12-18T02:29:55;1.10;;;0.90;;
2404;SDS011;1213;43.206;27.922;2022-12-18T02:32:24;2.93;;;1.70;;
2404;SDS011;1213;43.206;27.922;2022-12-18T02:34:55;1.70;;;1.60;;
2404;SDS011;1213;43.206;27.922;2022-12-18T02:37:23;1.07;;;0.97;;
2404;SDS011;1213;43.206;27.922;2022-12-18T02:39:51;2.37;;;1.20;;
2404;SDS011;1213;43.206;27.922;2022-12-18T02:42:20;1.67;;;1.57;;
2404;SDS011;1213;43.206;27.922;2022-12-18T02:44:47;1.30;;;1.20;;
2404;SDS011;1213;43.206;27.922;2022-12-18T02:47:20;1.33;;;1.07;;
2404;SDS011;1213;43.206;27.922;2022-12-18T02:49:55;1.47;;;1.33;;
2404;SDS011;1213;43.206;27.922;2022-12-18T02:57:37;2.57;;;1.80;;
2404;SDS011;1213;43.206;27.922;2022-12-18T03:00:08;2.00;;;1.80;;
2404;SDS011;1213;43.206;27.922;2022-12-18T03:02:39;1.73;;;1.33;;
2404;SDS011;1213;43.206;27.922;2022-12-18T03:05:31;1.20;;;1.10;;
2404;SDS011;1213;43.206;27.922;2022-12-18T03:08:03;2.13;;;1.70;;
2404;SDS011;1213;43.206;27.922;2022-12-18T03:10:34;2.00;;;1.37;;
2404;SDS011;1213;43.206;27.922;2022-12-18T03:13:06;1.50;;;1.40;;
2404;SDS011;1213;43.206;27.922;2022-12-18T03:15:38;2.63;;;1.70;;
2404;SDS011;1213;43.206;27.922;2022-12-18T03:18:12;1.80;;;1.70;;
2404;SDS011;1213;43.206;27.922;2022-12-18T03:20:41;5.70;;;2.60;;
2404;SDS011;1213;43.206;27.922;2022-12-18T03:23:10;1.87;;;1.33;;
2404;SDS011;1213;43.206;27.922;2022-12-18T03:25:40;1.93;;;1.83;;
2404;SDS011;1213;43.206;27.922;2022-12-18T03:28:09;3.03;;;2.03;;
2404;SDS011;1213;43.206;27.922;2022-12-18T03:30:40;1.77;;;1.67;;
2404;SDS011;1213;43.206;27.922;2022-12-18T03:33:09;2.60;;;2.23;;
2404;SDS011;1213;43.206;27.922;2022-12-18T03:35:44;2.10;;;1.47;;
2404;SDS011;1213;43.206;27.922;2022-12-18T03:38:11;2.07;;;1.37;;
2404;SDS011;1213;43.206;27.922;2022-12-18T03:40:54;2.07;;;1.90;;
2404;SDS011;1213;43.206;27.922;2022-12-18T03:45:56;2.03;;;1.30;;
2404;SDS011;1213;43.206;27.922;2022-12-18T03:48:48;2.13;;;1.93;;
2404;SDS011;1213;43.206;27.922;2022-12-18T03:51:25;1.80;;;1.40;;
2404;SDS011;1213;43.206;27.922;2022-12-18T03:53:57;1.87;;;1.67;;
2404;SDS011;1213;43.206;27.922;2022-12-18T03:56:26;2.50;;;1.60;;
2404;SDS011;1213;43.206;27.922;2022-12-18T03:58:56;3.17;;;2.00;;
2404;SDS011;1213;43.206;27.922;2022-12-18T04:01:26;1.87;;;1.50;;
2404;SDS011;1213;43.206;27.922;2022-12-18T04:03:57;2.43;;;1.93;;
2404;SDS011;1213;43.206;27.922;2022-12-18T04:06:25;2.47;;;2.27;;
2404;SDS011;1213;43.206;27.922;2022-12-18T04:08:51;5.13;;;2.07;;
2404;SDS011;1213;43.206;27.922;2022-12-18T04:11:18;1.57;;;1.47;;
2404;SDS011;1213;43.206;27.922;2022-12-18T04:13:43;2.53;;;2.23;;
2404;SDS011;1213;43.206;27.922;2022-12-18T04:16:09;3.77;;;2.37;;
2404;SDS011;1213;43.206;27.922;2022-12-18T04:18:35;1.67;;;1.43;;
2404;SDS011;1213;43.206;27.922;2022-12-18T04:21:01;3.00;;;2.07;;
2404;SDS011;1213;43.206;27.922;2022-12-18T04:23:27;2.47;;;2.03;;
2404;SDS011;1213;43.206;27.922;2022-12-18T04:25:53;3.00;;;2.10;;
2404;SDS011;1213;43.206;27.922;2022-12-18T04:28:19;1.47;;;1.37;;
2404;SDS011;1213;43.206;27.922;2022-12-18T04:30:45;1.97;;;1.80;;
2404;SDS011;1213;43.206;27.922;2022-12-18T04:33:11;2.03;;;1.93;;
2404;SDS011;1213;43.206;27.922;2022-12-18T04:35:38;1.63;;;1.43;;
2404;SDS011;1213;43.206;27.922;2022-12-18T04:38:05;2.90;;;2.70;;
2404;SDS011;1213;43.206;27.922;2022-12-18T04:40:31;3.33;;;1.50;;
2404;SDS011;1213;43.206;27.922;2022-12-18T04:42:57;2.67;;;2.00;;
2404;SDS011;1213;43.206;27.922;2022-12-18T04:45:22;2.30;;;2.10;;
2404;SDS011;1213;43.206;27.922;2022-12-18T04:47:49;2.10;;;1.87;;
2404;SDS011;1213;43.206;27.922;2022-12-18T04:50:15;3.10;;;1.80;;
2404;SDS011;1213;43.206;27.922;2022-12-18T04:52:40;4.33;;;2.83;;
2404;SDS011;1213;43.206;27.922;2022-12-18T04:55:06;7.40;;;2.73;;
2404;SDS011;1213;43.206;27.922;2022-12-18T04:57:31;2.87;;;2.50;;
2404;SDS011;1213;43.206;27.922;2022-12-18T04:59:57;11.13;;;2.07;;
2404;SDS011;1213;43.206;27.922;2022-12-18T05:02:22;3.23;;;2.10;;
2404;SDS011;1213;43.206;27.922;2022-12-18T05:04:48;4.37;;;2.97;;
2404;SDS011;1213;43.206;27.922;2022-12-18T05:07:14;4.00;;;2.60;;
2404;SDS011;1213;43.206;27.922;2022-12-18T05:09:41;3.00;;;2.70;;
2404;SDS011;1213;43.206;27.922;2022-12-18T05:12:06;5.40;;;3.07;;
2404;SDS011;1213;43.206;27.922;2022-12-18T05:14:32;2.67;;;1.90;;
2404;SDS011;1213;43.206;27.922;2022-12-18T05:16:57;2.50;;;2.30;;
2404;SDS011;1213;43.206;27.922;2022-12-18T05:19:22;3.97;;;3.23;;
2404;SDS011;1213;43.206;27.922;2022-12-18T05:21:48;4.00;;;3.43;;
2404;SDS011;1213;43.206;27.922;2022-12-18T05:24:13;5.00;;;3.60;;
2404;SDS011;1213;43.206;27.922;2022-12-18T05:26:39;5.87;;;3.37;;
2404;SDS011;1213;43.206;27.922;2022-12-18T05:29:04;1.07;;;0.97;;
2404;SDS011;1213;43.206;27.922;2022-12-18T05:31:30;4.60;;;3.33;;
2404;SDS011;1213;43.206;27.922;2022-12-18T05:33:55;4.67;;;4.07;;
2404;SDS011;1213;43.206;27.922;2022-12-18T05:36:21;3.57;;;3.30;;
2404;SDS011;1213;43.206;27.922;2022-12-18T05:38:48;5.00;;;3.77;;
2404;SDS011;1213;43.206;27.922;2022-12-18T05:41:14;6.37;;;2.80;;
2404;SDS011;1213;43.206;27.922;2022-12-18T05:43:40;6.33;;;3.40;;
2404;SDS011;1213;43.206;27.922;2022-12-18T05:46:13;7.33;;;3.27;;
2404;SDS011;1213;43.206;27.922;2022-12-18T05:48:41;3.07;;;2.40;;
2404;SDS011;1213;43.206;27.922;2022-12-18T05:51:12;6.17;;;4.50;;
2404;SDS011;1213;43.206;27.922;2022-12-18T05:53:39;3.97;;;2.40;;
2404;SDS011;1213;43.206;27.922;2022-12-18T05:56:08;6.73;;;4.40;;
2404;SDS011;1213;43.206;27.922;2022-12-18T05:58:35;3.70;;;1.47;;
2404;SDS011;1213;43.206;27.922;2022-12-18T06:01:12;8.80;;;4.00;;
2404;SDS011;1213;43.206;27.922;2022-12-18T06:03:38;5.60;;;3.93;;
2404;SDS011;1213;43.206;27.922;2022-12-18T06:06:12;4.10;;;1.77;;
2404;SDS011;1213;43.206;27.922;2022-12-18T06:08:48;7.63;;;3.87;;
2404;SDS011;1213;43.206;27.922;2022-12-18T06:11:16;4.13;;;3.17;;
2404;SDS011;1213;43.206;27.922;2022-12-18T06:13:44;8.10;;;4.20;;
2404;SDS011;1213;43.206;27.922;2022-12-18T06:16:10;11.53;;;6.73;;
2404;SDS011;1213;43.206;27.922;2022-12-18T06:18:35;4.10;;;3.77;;
2404;SDS011;1213;43.206;27.922;2022-12-18T06:21:02;5.60;;;3.90;;
2404;SDS011;1213;43.206;27.922;2022-12-18T06:23:28;12.47;;;6.00;;
2404;SDS011;1213;43.206;27.922;2022-12-18T06:25:54;8.13;;;4.67;;
2404;SDS011;1213;43.206;27.922;2022-12-18T06:28:19;6.60;;;5.03;;
2404;SDS011;1213;43.206;27.922;2022-12-18T06:30:46;4.33;;;3.93;;
2404;SDS011;1213;43.206;27.922;2022-12-18T06:33:14;9.13;;;4.30;;
2404;SDS011;1213;43.206;27.922;2022-12-18T06:35:40;6.23;;;5.30;;
2404;SDS011;1213;43.206;27.922;2022-12-18T06:38:06;5.47;;;3.97;;
2404;SDS011;1213;43.206;27.922;2022-12-18T06:40:31;5.67;;;4.23;;
2404;SDS011;1213;43.206;27.922;2022-12-18T06:42:57;2.83;;;2.57;;
2404;SDS011;1213;43.206;27.922;2022-12-18T06:45:23;9.60;;;5.20;;
2404;SDS011;1213;43.206;27.922;2022-12-18T06:47:49;8.23;;;4.77;;
2404;SDS011;1213;43.206;27.922;2022-12-18T06:50:16;2.47;;;2.30;;
2404;SDS011;1213;43.206;27.922;2022-12-18T06:52:41;3.90;;;3.30;;
2404;SDS011;1213;43.206;27.922;2022-12-18T06:55:09;5.87;;;3.63;;
2404;SDS011;1213;43.206;27.922;2022-12-18T06:57:35;8.27;;;4.23;;
2404;SDS011;1213;43.206;27.922;2022-12-18T07:00:01;5.67;;;5.17;;
2404;SDS011;1213;43.206;27.922;2022-12-18T07:02:27;7.20;;;6.47;;
2404;SDS011;1213;43.206;27.922;2022-12-18T07:04:53;8.47;;;5.50;;
2404;SDS011;1213;43.206;27.922;2022-12-18T07:07:18;8.60;;;4.80;;
2404;SDS011;1213;43.206;27.922;2022-12-18T07:09:46;4.53;;;4.00;;
2404;SDS011;1213;43.206;27.922;2022-12-18T07:12:12;11.20;;;5.27;;
2404;SDS011;1213;43.206;27.922;2022-12-18T07:14:37;14.83;;;5.83;;
2404;SDS011;1213;43.206;27.922;2022-12-18T07:17:03;10.93;;;6.40;;
2404;SDS011;1213;43.206;27.922;2022-12-18T07:19:28;1.47;;;1.37;;
2404;SDS011;1213;43.206;27.922;2022-12-18T07:21:54;4.20;;;3.80;;
2404;SDS011;1213;43.206;27.922;2022-12-18T07:24:19;10.60;;;4.97;;
2404;SDS011;1213;43.206;27.922;2022-12-18T07:26:45;10.60;;;5.43;;
2404;SDS011;1213;43.206;27.922;2022-12-18T07:29:11;3.77;;;2.90;;
2404;SDS011;1213;43.206;27.922;2022-12-18T07:31:37;3.63;;;3.03;;
2404;SDS011;1213;43.206;27.922;2022-12-18T07:34:03;9.70;;;5.70;;
2404;SDS011;1213;43.206;27.922;2022-12-18T07:36:28;11.53;;;5.30;;
2404;SDS011;1213;43.206;27.922;2022-12-18T07:38:55;7.00;;;4.97;;
2404;SDS011;1213;43.206;27.922;2022-12-18T07:41:21;16.23;;;6.80;;
2404;SDS011;1213;43.206;27.922;2022-12-18T07:43:46;13.63;;;6.73;;
2404;SDS011;1213;43.206;27.922;2022-12-18T07:46:12;18.93;;;4.40;;
2404;SDS011;1213;43.206;27.922;2022-12-18T07:48:40;5.30;;;4.80;;
2404;SDS011;1213;43.206;27.922;2022-12-18T07:51:07;5.17;;;4.70;;
2404;SDS011;1213;43.206;27.922;2022-12-18T07:53:33;10.90;;;5.90;;
2404;SDS011;1213;43.206;27.922;2022-12-18T07:56:01;5.70;;;3.90;;
2404;SDS011;1213;43.206;27.922;2022-12-18T07:58:30;9.53;;;6.60;;
2404;SDS011;1213;43.206;27.922;2022-12-18T08:01:02;13.23;;;5.13;;
2404;SDS011;1213;43.206;27.922;2022-12-18T08:03:35;15.77;;;5.67;;
2404;SDS011;1213;43.206;27.922;2022-12-18T08:06:02;12.47;;;5.60;;
2404;SDS011;1213;43.206;27.922;2022-12-18T08:08:29;10.43;;;5.47;;
2404;SDS011;1213;43.206;27.922;2022-12-18T08:10:55;9.60;;;5.43;;
2404;SDS011;1213;43.206;27.922;2022-12-18T08:13:23;7.40;;;5.63;;
2404;SDS011;1213;43.206;27.922;2022-12-18T08:16:22;13.00;;;8.27;;
2404;SDS011;1213;43.206;27.922;2022-12-18T08:18:53;5.33;;;4.70;;
2404;SDS011;1213;43.206;27.922;2022-12-18T08:21:20;10.00;;;5.50;;
2404;SDS011;1213;43.206;27.922;2022-12-18T08:23:49;11.93;;;7.23;;
2404;SDS011;1213;43.206;27.922;2022-12-18T08:26:16;11.80;;;7.57;;
2404;SDS011;1213;43.206;27.922;2022-12-18T08:28:41;5.00;;;4.60;;
2404;SDS011;1213;43.206;27.922;2022-12-18T08:31:07;11.00;;;4.67;;
2404;SDS011;1213;43.206;27.922;2022-12-18T08:33:33;33.83;;;8.07;;
2404;SDS011;1213;43.206;27.922;2022-12-18T08:35:59;14.93;;;7.20;;
2404;SDS011;1213;43.206;27.922;2022-12-18T08:38:26;10.30;;;6.27;;
2404;SDS011;1213;43.206;27.922;2022-12-18T08:41:01;5.43;;;4.30;;
2404;SDS011;1213;43.206;27.922;2022-12-18T08:43:31;7.10;;;4.37;;
2404;SDS011;1213;43.206;27.922;2022-12-18T08:46:16;8.47;;;5.83;;
2404;SDS011;1213;43.206;27.922;2022-12-18T08:48:43;14.00;;;7.37;;
2404;SDS011;1213;43.206;27.922;2022-12-18T08:51:10;7.03;;;5.47;;
2404;SDS011;1213;43.206;27.922;2022-12-18T08:53:36;4.73;;;4.33;;
2404;SDS011;1213;43.206;27.922;2022-12-18T08:56:02;6.10;;;3.83;;
2404;SDS011;1213;43.206;27.922;2022-12-18T08:58:28;6.53;;;4.77;;
2404;SDS011;1213;43.206;27.922;2022-12-18T09:00:59;9.40;;;6.67;;
2404;SDS011;1213;43.206;27.922;2022-12-18T09:03:25;4.40;;;3.97;;
2404;SDS011;1213;43.206;27.922;2022-12-18T09:05:51;15.17;;;6.80;;
2404;SDS011;1213;43.206;27.922;2022-12-18T09:08:16;15.60;;;7.90;;
2404;SDS011;1213;43.206;27.922;2022-12-18T09:10:45;2.97;;;2.70;;
2404;SDS011;1213;43.206;27.922;2022-12-18T09:13:12;6.20;;;4.10;;
2404;SDS011;1213;43.206;27.922;2022-12-18T09:15:49;11.07;;;7.03;;
2404;SDS011;1213;43.206;27.922;2022-12-18T09:18:18;18.03;;;7.47;;
2404;SDS011;1213;43.206;27.922;2022-12-18T09:20:44;9.60;;;5.13;;
2404;SDS011;1213;43.206;27.922;2022-12-18T09:23:10;11.53;;;4.83;;
2404;SDS011;1213;43.206;27.922;2022-12-18T09:25:39;20.23;;;8.50;;
2404;SDS011;1213;43.206;27.922;2022-12-18T09:28:15;5.90;;;4.10;;
2404;SDS011;1213;43.206;27.922;2022-12-18T09:30:47;7.53;;;4.80;;
2404;SDS011;1213;43.206;27.922;2022-12-18T09:33:18;10.87;;;7.83;;
2404;SDS011;1213;43.206;27.922;2022-12-18T09:35:50;5.00;;;4.60;;
2404;SDS011;1213;43.206;27.922;2022-12-18T09:38:19;6.43;;;3.53;;
2404;SDS011;1213;43.206;27.922;2022-12-18T09:40:49;12.80;;;6.57;;
2404;SDS011;1213;43.206;27.922;2022-12-18T09:43:18;8.23;;;4.53;;
2404;SDS011;1213;43.206;27.922;2022-12-18T09:45:51;5.10;;;3.97;;
2404;SDS011;1213;43.206;27.922;2022-12-18T09:51:19;10.73;;;8.70;;
2404;SDS011;1213;43.206;27.922;2022-12-18T09:53:53;14.87;;;8.73;;
2404;SDS011;1213;43.206;27.922;2022-12-18T09:56:33;6.67;;;5.07;;
2404;SDS011;1213;43.206;27.922;2022-12-18T09:59:03;5.50;;;2.73;;
2404;SDS011;1213;43.206;27.922;2022-12-18T10:01:43;16.93;;;8.80;;
2404;SDS011;1213;43.206;27.922;2022-12-18T10:04:10;8.37;;;6.10;;
2404;SDS011;1213;43.206;27.922;2022-12-18T10:09:19;12.53;;;6.37;;
2404;SDS011;1213;43.206;27.922;2022-12-18T10:17:37;9.07;;;5.63;;
2404;SDS011;1213;43.206;27.922;2022-12-18T10:23:03;4.67;;;2.40;;
2404;SDS011;1213;43.206;27.922;2022-12-18T10:28:34;10.97;;;6.97;;
2404;SDS011;1213;43.206;27.922;2022-12-18T10:31:02;9.10;;;7.30;;
2404;SDS011;1213;43.206;27.922;2022-12-18T10:33:30;12.57;;;6.90;;
2404;SDS011;1213;43.206;27.922;2022-12-18T10:35:57;11.83;;;6.70;;
2404;SDS011;1213;43.206;27.922;2022-12-18T10:38:27;4.90;;;4.00;;
2404;SDS011;1213;43.206;27.922;2022-12-18T10:41:05;14.83;;;7.60;;
2404;SDS011;1213;43.206;27.922;2022-12-18T10:43:45;16.03;;;7.97;;
2404;SDS011;1213;43.206;27.922;2022-12-18T10:48:39;9.27;;;6.70;;
2404;SDS011;1213;43.206;27.922;2022-12-18T10:51:31;12.10;;;7.50;;
2404;SDS011;1213;43.206;27.922;2022-12-18T10:54:04;8.80;;;4.80;;
2404;SDS011;1213;43.206;27.922;2022-12-18T10:56:46;13.70;;;7.20;;
2404;SDS011;1213;43.206;27.922;2022-12-18T10:59:20;12.63;;;6.57;;
2404;SDS011;1213;43.206;27.922;2022-12-18T11:01:58;10.20;;;6.23;;
2404;SDS011;1213;43.206;27.922;2022-12-18T11:04:50;7.23;;;5.83;;
2404;SDS011;1213;43.206;27.922;2022-12-18T11:07:47;10.47;;;7.67;;
2404;SDS011;1213;43.206;27.922;2022-12-18T11:10:28;8.17;;;5.70;;
2404;SDS011;1213;43.206;27.922;2022-12-18T11:13:14;13.93;;;7.43;;
2404;SDS011;1213;43.206;27.922;2022-12-18T11:15:46;15.23;;;7.80;;
2404;SDS011;1213;43.206;27.922;2022-12-18T11:18:17;14.47;;;7.43;;
2404;SDS011;1213;43.206;27.922;2022-12-18T11:21:09;12.90;;;7.67;;
2404;SDS011;1213;43.206;27.922;2022-12-18T11:23:52;16.83;;;8.37;;
2404;SDS011;1213;43.206;27.922;2022-12-18T11:26:21;16.00;;;8.70;;
2404;SDS011;1213;43.206;27.922;2022-12-18T11:29:09;18.23;;;9.27;;
2404;SDS011;1213;43.206;27.922;2022-12-18T11:31:45;13.90;;;8.00;;
2404;SDS011;1213;43.206;27.922;2022-12-18T11:34:16;14.50;;;8.60;;
2404;SDS011;1213;43.206;27.922;2022-12-18T11:36:58;12.70;;;8.10;;
2404;SDS011;1213;43.206;27.922;2022-12-18T11:39:37;16.07;;;8.30;;
2404;SDS011;1213;43.206;27.922;2022-12-18T11:42:22;10.77;;;7.37;;
2404;SDS011;1213;43.206;27.922;2022-12-18T11:50:26;14.10;;;9.00;;
2404;SDS011;1213;43.206;27.922;2022-12-18T11:52:53;12.63;;;10.00;;
2404;SDS011;1213;43.206;27.922;2022-12-18T11:55:54;16.70;;;9.33;;
2404;SDS011;1213;43.206;27.922;2022-12-18T12:18:01;9.30;;;7.63;;
2404;SDS011;1213;43.206;27.922;2022-12-18T12:29:24;10.73;;;6.07;;
2404;SDS011;1213;43.206;27.922;2022-12-18T12:32:22;11.27;;;7.53;;
2404;SDS011;1213;43.206;27.922;2022-12-18T12:38:04;7.27;;;5.73;;
2404;SDS011;1213;43.206;27.922;2022-12-18T12:40:33;7.97;;;4.30;;
2404;SDS011;1213;43.206;27.922;2022-12-18T12:46:11;7.27;;;5.30;;
2404;SDS011;1213;43.206;27.922;2022-12-18T12:51:27;8.30;;;6.10;;
2404;SDS011;1213;43.206;27.922;2022-12-18T12:53:55;8.67;;;5.80;;
2404;SDS011;1213;43.206;27.922;2022-12-18T12:56:22;7.83;;;4.30;;
2404;SDS011;1213;43.206;27.922;2022-12-18T12:58:57;8.70;;;4.70;;
2404;SDS011;1213;43.206;27.922;2022-12-18T13:06:55;7.03;;;5.03;;
2404;SDS011;1213;43.206;27.922;2022-12-18T13:09:29;4.43;;;3.90;;
2404;SDS011;1213;43.206;27.922;2022-12-18T13:11:57;4.27;;;3.57;;
2404;SDS011;1213;43.206;27.922;2022-12-18T13:14:54;8.50;;;5.37;;
2404;SDS011;1213;43.206;27.922;2022-12-18T13:17:38;5.33;;;3.07;;
2404;SDS011;1213;43.206;27.922;2022-12-18T13:20:04;4.57;;;3.23;;
2404;SDS011;1213;43.206;27.922;2022-12-18T13:25:27;8.33;;;3.50;;
2404;SDS011;1213;43.206;27.922;2022-12-18T13:28:15;7.90;;;2.90;;
2404;SDS011;1213;43.206;27.922;2022-12-18T13:30:46;2.23;;;2.03;;
2404;SDS011;1213;43.206;27.922;2022-12-18T13:41:03;3.13;;;2.87;;
2404;SDS011;1213;43.206;27.922;2022-12-18T13:51:23;4.93;;;3.30;;
2404;SDS011;1213;43.206;27.922;2022-12-18T13:53:51;4.70;;;3.00;;
2404;SDS011;1213;43.206;27.922;2022-12-18T13:56:25;3.03;;;2.70;;
2404;SDS011;1213;43.206;27.922;2022-12-18T14:01:49;5.17;;;3.97;;
2404;SDS011;1213;43.206;27.922;2022-12-18T14:04:19;5.63;;;3.40;;
2404;SDS011;1213;43.206;27.922;2022-12-18T14:06:47;6.57;;;4.20;;
2404;SDS011;1213;43.206;27.922;2022-12-18T14:09:18;4.37;;;3.90;;
2404;SDS011;1213;43.206;27.922;2022-12-18T14:11:49;5.43;;;3.63;;
2404;SDS011;1213;43.206;27.922;2022-12-18T14:14:18;5.60;;;3.60;;
2404;SDS011;1213;43.206;27.922;2022-12-18T14:16:45;4.67;;;4.17;;
2404;SDS011;1213;43.206;27.922;2022-12-18T14:19:15;5.43;;;3.93;;
2404;SDS011;1213;43.206;27.922;2022-12-18T14:21:49;5.00;;;3.13;;
2404;SDS011;1213;43.206;27.922;2022-12-18T14:24:19;4.57;;;3.87;;
2404;SDS011;1213;43.206;27.922;2022-12-18T14:26:47;4.97;;;3.23;;
2404;SDS011;1213;43.206;27.922;2022-12-18T14:29:34;4.97;;;4.57;;
2404;SDS011;1213;43.206;27.922;2022-12-18T14:32:07;5.50;;;4.90;;
2404;SDS011;1213;43.206;27.922;2022-12-18T14:34:44;5.00;;;4.27;;
2404;SDS011;1213;43.206;27.922;2022-12-18T14:37:11;3.00;;;2.13;;
2404;SDS011;1213;43.206;27.922;2022-12-18T14:39:39;4.40;;;3.17;;
2404;SDS011;1213;43.206;27.922;2022-12-18T14:42:05;4.57;;;3.20;;
2404;SDS011;1213;43.206;27.922;2022-12-18T14:44:30;3.50;;;3.17;;
2404;SDS011;1213;43.206;27.922;2022-12-18T14:46:56;7.40;;;3.37;;
2404;SDS011;1213;43.206;27.922;2022-12-18T14:49:26;6.00;;;3.77;;
2404;SDS011;1213;43.206;27.922;2022-12-18T14:51:57;4.60;;;4.00;;
2404;SDS011;1213;43.206;27.922;2022-12-18T14:54:25;3.70;;;3.40;;
2404;SDS011;1213;43.206;27.922;2022-12-18T14:59:29;3.40;;;3.20;;
2404;SDS011;1213;43.206;27.922;2022-12-18T15:05:16;4.63;;;2.73;;
2404;SDS011;1213;43.206;27.922;2022-12-18T15:07:47;6.37;;;3.90;;
2404;SDS011;1213;43.206;27.922;2022-12-18T15:12:48;22.57;;;5.23;;
2404;SDS011;1213;43.206;27.922;2022-12-18T15:18:13;5.63;;;3.13;;
2404;SDS011;1213;43.206;27.922;2022-12-18T15:25:47;4.53;;;3.70;;
2404;SDS011;1213;43.206;27.922;2022-12-18T15:28:22;8.00;;;3.70;;
2404;SDS011;1213;43.206;27.922;2022-12-18T15:30:57;6.27;;;3.57;;
2404;SDS011;1213;43.206;27.922;2022-12-18T15:36:18;4.27;;;3.70;;
2404;SDS011;1213;43.206;27.922;2022-12-18T15:38:48;6.03;;;5.20;;
2404;SDS011;1213;43.206;27.922;2022-12-18T15:41:15;5.93;;;4.40;;
2404;SDS011;1213;43.206;27.922;2022-12-18T15:43:42;5.50;;;4.30;;
2404;SDS011;1213;43.206;27.922;2022-12-18T15:46:16;9.23;;;4.80;;
2404;SDS011;1213;43.206;27.922;2022-12-18T15:48:45;9.63;;;6.47;;
2404;SDS011;1213;43.206;27.922;2022-12-18T15:51:19;6.57;;;5.30;;
2404;SDS011;1213;43.206;27.922;2022-12-18T15:53:52;6.87;;;4.10;;
2404;SDS011;1213;43.206;27.922;2022-12-18T15:56:20;6.23;;;4.67;;
2404;SDS011;1213;43.206;27.922;2022-12-18T15:59:11;6.83;;;4.30;;
2404;SDS011;1213;43.206;27.922;2022-12-18T16:01:39;16.23;;;4.83;;
2404;SDS011;1213;43.206;27.922;2022-12-18T16:04:04;7.90;;;4.90;;
2404;SDS011;1213;43.206;27.922;2022-12-18T16:06:30;6.03;;;4.30;;
2404;SDS011;1213;43.206;27.922;2022-12-18T16:08:56;6.37;;;4.90;;
2404;SDS011;1213;43.206;27.922;2022-12-18T16:11:23;11.00;;;4.60;;
2404;SDS011;1213;43.206;27.922;2022-12-18T16:16:44;7.33;;;4.70;;
2404;SDS011;1213;43.206;27.922;2022-12-18T16:19:11;7.40;;;3.73;;
2404;SDS011;1213;43.206;27.922;2022-12-18T16:21:37;7.23;;;3.97;;
2404;SDS011;1213;43.206;27.922;2022-12-18T16:24:03;4.43;;;3.60;;
2404;SDS011;1213;43.206;27.922;2022-12-18T16:26:29;7.13;;;4.53;;
2404;SDS011;1213;43.206;27.922;2022-12-18T16:28:54;5.90;;;4.97;;
2404;SDS011;1213;43.206;27.922;2022-12-18T16:31:20;4.73;;;4.33;;
2404;SDS011;1213;43.206;27.922;2022-12-18T16:33:46;4.93;;;4.00;;
2404;SDS011;1213;43.206;27.922;2022-12-18T16:36:11;9.27;;;4.43;;
2404;SDS011;1213;43.206;27.922;2022-12-18T16:38:37;9.30;;;4.03;;
2404;SDS011;1213;43.206;27.922;2022-12-18T16:41:06;5.50;;;4.13;;
2404;SDS011;1213;43.206;27.922;2022-12-18T16:44:01;7.20;;;5.00;;
2404;SDS011;1213;43.206;27.922;2022-12-18T16:46:27;5.50;;;4.90;;
2404;SDS011;1213;43.206;27.922;2022-12-18T16:48:53;4.90;;;3.90;;
2404;SDS011;1213;43.206;27.922;2022-12-18T16:51:21;3.37;;;3.07;;
2404;SDS011;1213;43.206;27.922;2022-12-18T16:53:47;6.13;;;3.23;;
2404;SDS011;1213;43.206;27.922;2022-12-18T16:56:12;6.00;;;4.13;;
2404;SDS011;1213;43.206;27.922;2022-12-18T16:58:37;7.90;;;5.60;;
2404;SDS011;1213;43.206;27.922;2022-12-18T17:01:06;5.60;;;5.10;;
2404;SDS011;1213;43.206;27.922;2022-12-18T17:03:33;6.60;;;4.47;;
2404;SDS011;1213;43.206;27.922;2022-12-18T17:06:03;4.90;;;4.30;;
2404;SDS011;1213;43.206;27.922;2022-12-18T17:08:29;6.87;;;4.67;;
2404;SDS011;1213;43.206;27.922;2022-12-18T17:10:55;6.80;;;3.93;;
2404;SDS011;1213;43.206;27.922;2022-12-18T17:13:20;6.10;;;4.00;;
2404;SDS011;1213;43.206;27.922;2022-12-18T17:15:46;4.23;;;3.60;;
2404;SDS011;1213;43.206;27.922;2022-12-18T17:18:11;8.37;;;3.60;;
2404;SDS011;1213;43.206;27.922;2022-12-18T17:20:36;5.57;;;4.03;;
2404;SDS011;1213;43.206;27.922;2022-12-18T17:23:02;8.77;;;5.27;;
2404;SDS011;1213;43.206;27.922;2022-12-18T17:25:27;4.27;;;3.20;;
2404;SDS011;1213;43.206;27.922;2022-12-18T17:27:54;4.40;;;3.03;;